createdAt,value
2022-08-04T00:00:22.449Z,2.80
2022-08-04T00:03:17.662Z,2.78
2022-08-04T00:06:12.007Z,2.95
2022-08-04T00:09:09.122Z,3.13
2022-08-04T00:12:02.590Z,2.75
2022-08-04T00:14:58.265Z,2.67
2022-08-04T00:17:50.523Z,3.00
2022-08-04T00:20:42.547Z,2.97
2022-08-04T00:24:10.815Z,2.53
2022-08-04T00:26:45.741Z,2.85
2022-08-04T00:29:34.789Z,2.92
2022-08-04T00:32:33.954Z,2.63
2022-08-04T00:35:23.571Z,2.47
2022-08-04T00:38:12.394Z,2.85
2022-08-04T00:41:09.107Z,3.13
2022-08-04T00:44:23.889Z,2.70
2022-08-04T00:47:30.985Z,2.67
2022-08-04T00:50:26.127Z,2.90
2022-08-04T00:53:20.793Z,2.72
2022-08-04T00:56:47.261Z,2.63
2022-08-04T00:59:52.874Z,2.78
2022-08-04T01:03:07.369Z,2.55
2022-08-04T01:06:10.857Z,2.78
2022-08-04T01:09:28.356Z,2.53
2022-08-04T01:12:33.766Z,2.83
2022-08-04T01:15:32.706Z,2.50
2022-08-04T01:18:56.288Z,2.65
2022-08-04T01:22:16.753Z,2.60
2022-08-04T01:25:40.472Z,2.55
2022-08-04T01:28:42.905Z,2.50
2022-08-04T01:31:42.364Z,2.42
2022-08-04T01:34:32.899Z,2.65
2022-08-04T01:40:15.725Z,2.40
2022-08-04T01:43:05.837Z,2.72
2022-08-04T01:45:59.210Z,2.53
2022-08-04T01:48:55.361Z,2.67
2022-08-04T01:51:45.546Z,2.47
2022-08-04T01:54:37.430Z,2.97
2022-08-04T01:57:38.326Z,2.47
2022-08-04T02:00:30.617Z,2.40
2022-08-04T02:03:19.823Z,2.58
2022-08-04T02:06:20.286Z,2.75
2022-08-04T02:09:18.710Z,2.58
2022-08-04T02:12:21.278Z,2.50
2022-08-04T02:15:15.347Z,2.50
2022-08-04T02:18:07.050Z,2.72
2022-08-04T02:21:00.145Z,2.60
2022-08-04T02:23:55.571Z,2.30
2022-08-04T02:26:48.297Z,2.45
2022-08-04T02:29:47.238Z,2.80
2022-08-04T02:32:40.980Z,2.47
2022-08-04T02:35:30.593Z,2.63
2022-08-04T02:38:26.150Z,2.33
2022-08-04T02:41:18.402Z,2.55
2022-08-04T02:44:09.178Z,2.22
2022-08-04T02:46:58.723Z,2.67
2022-08-04T02:49:48.079Z,2.65
2022-08-04T02:52:38.112Z,2.53
2022-08-04T02:55:28.641Z,2.42
2022-08-04T02:58:21.772Z,2.38
2022-08-04T03:01:10.095Z,2.22
2022-08-04T03:04:24.976Z,2.75
2022-08-04T03:07:44.529Z,2.40
2022-08-04T03:11:07.085Z,2.45
2022-08-04T03:14:38.902Z,2.25
2022-08-04T03:18:00.071Z,2.30
2022-08-04T03:21:18.836Z,2.45
2022-08-04T03:24:43.498Z,2.38
2022-08-04T03:27:50.777Z,2.90
2022-08-04T03:30:53.145Z,2.42
2022-08-04T03:34:17.436Z,2.40
2022-08-04T03:37:21.279Z,2.17
2022-08-04T03:40:34.528Z,2.60
2022-08-04T03:43:57.446Z,2.28
2022-08-04T03:47:26.065Z,2.67
2022-08-04T03:50:46.810Z,2.40
2022-08-04T03:53:58.930Z,2.17
2022-08-04T03:57:16.192Z,2.50
2022-08-04T04:00:08.996Z,2.70
2022-08-04T04:03:36.626Z,2.60
2022-08-04T04:07:01.222Z,2.45
2022-08-04T04:10:12.092Z,2.22
2022-08-04T04:13:31.008Z,2.50
2022-08-04T04:16:38.762Z,2.22
2022-08-04T04:19:59.373Z,2.55
2022-08-04T04:26:22.952Z,2.10
2022-08-04T04:29:30.818Z,2.50
2022-08-04T04:32:24.947Z,2.25
2022-08-04T04:35:24.378Z,2.60
2022-08-04T04:38:36.557Z,2.15
2022-08-04T04:41:46.656Z,2.38
2022-08-04T04:44:57.230Z,3.65
2022-08-04T04:48:09.919Z,4.03
2022-08-04T04:51:10.022Z,2.65
2022-08-04T04:54:06.408Z,3.22
2022-08-04T04:57:06.449Z,2.97
2022-08-04T04:59:59.650Z,3.15
2022-08-04T05:03:12.178Z,2.60
2022-08-04T05:06:21.796Z,2.85
2022-08-04T05:09:29.248Z,2.83
2022-08-04T05:14:32.957Z,2.83
2022-08-04T05:15:47.699Z,3.20
2022-08-04T05:18:40.025Z,3.10
2022-08-04T05:21:38.878Z,3.25
2022-08-04T05:24:30.260Z,3.45
2022-08-04T05:27:31.219Z,3.35
2022-08-04T05:30:21.299Z,2.85
2022-08-04T05:33:13.992Z,3.10
2022-08-04T05:36:21.741Z,2.85
2022-08-04T05:39:21.774Z,3.25
2022-08-04T05:42:12.645Z,2.58
2022-08-04T05:45:03.488Z,2.55
2022-08-04T05:47:54.054Z,2.70
2022-08-04T05:50:42.920Z,3.03
2022-08-04T05:53:33.084Z,2.80
2022-08-04T05:56:21.549Z,2.60
2022-08-04T05:59:11.973Z,2.80
2022-08-04T06:02:03.788Z,3.22
2022-08-04T06:04:54.597Z,2.67
2022-08-04T06:08:04.586Z,2.70
2022-08-04T06:10:54.851Z,2.70
2022-08-04T06:13:48.788Z,2.88
2022-08-04T06:16:47.027Z,2.80
2022-08-04T06:20:01.199Z,2.03
2022-08-04T06:22:55.530Z,2.90
2022-08-04T06:25:48.718Z,2.30
2022-08-04T06:28:39.031Z,2.72
2022-08-04T06:32:28.112Z,2.53
2022-08-04T06:34:58.751Z,2.80
2022-08-04T06:37:48.904Z,2.90
2022-08-04T06:40:38.081Z,2.92
2022-08-04T06:43:27.803Z,2.40
2022-08-04T06:46:18.848Z,2.85
2022-08-04T06:49:07.297Z,3.20
2022-08-04T06:51:58.358Z,2.65
2022-08-04T06:54:46.965Z,2.38
2022-08-04T06:57:36.732Z,2.70
2022-08-04T07:00:27.352Z,2.28
2022-08-04T07:03:17.854Z,2.67
2022-08-04T07:06:14.761Z,2.63
2022-08-04T07:09:06.905Z,2.55
2022-08-04T07:11:55.895Z,3.25
2022-08-04T07:14:44.924Z,2.53
2022-08-04T07:17:34.723Z,2.40
2022-08-04T07:20:34.410Z,2.45
2022-08-04T07:23:26.794Z,2.70
2022-08-04T07:26:19.205Z,3.15
2022-08-04T07:29:08.024Z,2.88
2022-08-04T07:31:57.509Z,2.95
2022-08-04T07:34:49.761Z,2.80
2022-08-04T07:37:40.098Z,2.90
2022-08-04T07:40:28.794Z,2.60
2022-08-04T07:43:18.667Z,2.75
2022-08-04T07:46:06.847Z,2.58
2022-08-04T07:48:55.850Z,2.35
2022-08-04T07:51:44.290Z,3.05
2022-08-04T07:54:34.388Z,3.08
2022-08-04T07:57:39.969Z,3.03
2022-08-04T08:00:32.777Z,2.75
2022-08-04T08:03:22.315Z,2.95
2022-08-04T08:06:17.508Z,3.08
2022-08-04T08:09:22.217Z,3.13
2022-08-04T08:12:37.594Z,3.13
2022-08-04T08:15:21.425Z,3.00
2022-08-04T08:18:11.625Z,2.83
2022-08-04T08:21:00.188Z,2.85
2022-08-04T08:23:49.487Z,3.33
2022-08-04T08:26:38.500Z,2.92
2022-08-04T08:29:27.888Z,3.05
2022-08-04T08:32:17.361Z,2.80
2022-08-04T08:35:08.262Z,3.30
2022-08-04T08:40:53.142Z,29.80
2022-08-04T08:44:06.816Z,20.38
2022-08-04T08:47:07.964Z,11.40
2022-08-04T08:50:30.158Z,7.55
2022-08-04T08:53:59.823Z,5.07
2022-08-04T08:56:59.384Z,3.85
2022-08-04T09:00:00.024Z,3.65
2022-08-04T09:03:33.407Z,3.63
2022-08-04T09:06:47.819Z,3.15
2022-08-04T09:09:50.820Z,2.78
2022-08-04T09:12:47.858Z,3.35
2022-08-04T09:15:41.249Z,2.80
2022-08-04T09:18:37.832Z,3.08
2022-08-04T09:21:32.263Z,3.10
2022-08-04T09:24:35.840Z,3.00
2022-08-04T09:27:29.576Z,2.70
2022-08-04T09:30:21.801Z,3.50
2022-08-04T09:33:22.674Z,3.17
2022-08-04T09:36:37.091Z,3.25
2022-08-04T09:39:30.742Z,3.05
2022-08-04T09:42:29.302Z,3.15
2022-08-04T09:45:26.495Z,3.20
2022-08-04T09:48:35.916Z,3.55
2022-08-04T09:51:58.861Z,3.25
2022-08-04T09:54:54.201Z,2.92
2022-08-04T09:57:53.063Z,3.00
2022-08-04T10:00:48.689Z,2.80
2022-08-04T10:03:40.473Z,3.55
2022-08-04T10:06:50.252Z,3.10
2022-08-04T10:10:12.374Z,3.10
2022-08-04T10:13:22.755Z,3.75
2022-08-04T10:16:26.300Z,3.35
2022-08-04T10:19:25.785Z,3.25
2022-08-04T10:22:30.689Z,3.05
2022-08-04T10:25:38.170Z,3.05
2022-08-04T10:28:50.995Z,3.30
2022-08-04T10:31:47.571Z,2.83
2022-08-04T10:34:44.691Z,3.42
2022-08-04T10:38:00.266Z,3.42
2022-08-04T10:40:57.402Z,3.42
2022-08-04T10:43:54.300Z,2.90
2022-08-04T10:46:48.842Z,3.15
2022-08-04T10:49:40.297Z,2.92
2022-08-04T10:52:35.866Z,3.50
2022-08-04T10:56:06.194Z,4.18
2022-08-04T10:58:50.986Z,3.75
2022-08-04T11:02:00.893Z,3.15
2022-08-04T11:04:59.596Z,3.47
2022-08-04T11:07:51.493Z,3.00
2022-08-04T11:10:44.657Z,2.97
2022-08-04T11:13:42.728Z,3.20
2022-08-04T11:16:41.218Z,3.10
2022-08-04T11:19:44.966Z,3.03
2022-08-04T11:22:46.062Z,3.80
2022-08-04T11:25:43.059Z,3.35
2022-08-04T11:28:44.725Z,3.08
2022-08-04T11:31:37.468Z,3.15
2022-08-04T11:34:28.099Z,3.30
2022-08-04T11:37:22.325Z,3.00
2022-08-04T11:40:17.194Z,3.05
2022-08-04T11:43:10.292Z,3.00
2022-08-04T11:46:03.356Z,3.05
2022-08-04T11:48:59.989Z,2.80
2022-08-04T11:51:50.115Z,3.22
2022-08-04T11:54:39.855Z,2.93
2022-08-04T11:57:35.631Z,3.30
2022-08-04T12:00:27.886Z,4.82
2022-08-04T12:03:33.644Z,4.50
2022-08-04T12:06:38.083Z,3.67
2022-08-04T12:09:35.920Z,2.83
2022-08-04T12:12:32.431Z,3.00
2022-08-04T12:15:27.848Z,3.17
2022-08-04T12:18:23.043Z,4.55
2022-08-04T12:21:20.067Z,2.78
2022-08-04T12:24:17.894Z,3.38
2022-08-04T12:27:13.366Z,3.03
2022-08-04T12:30:59.316Z,2.50
2022-08-04T12:33:21.419Z,2.60
2022-08-04T12:36:21.624Z,3.70
2022-08-04T12:39:17.827Z,3.30
2022-08-04T12:42:21.524Z,3.45
2022-08-04T12:45:11.925Z,3.20
2022-08-04T12:48:02.215Z,3.93
2022-08-04T12:50:54.094Z,2.97
2022-08-04T12:53:50.880Z,2.80
2022-08-04T12:56:43.113Z,2.65
2022-08-04T12:59:31.601Z,4.35
2022-08-04T13:02:25.401Z,4.43
2022-08-04T13:05:16.922Z,3.65
2022-08-04T13:08:07.768Z,3.20
2022-08-04T13:10:59.893Z,3.08
2022-08-04T13:14:17.272Z,3.40
2022-08-04T13:17:05.657Z,3.03
2022-08-04T13:19:56.535Z,3.10
2022-08-04T13:22:46.332Z,3.13
2022-08-04T13:26:42.868Z,3.33
2022-08-04T13:28:51.542Z,2.95
2022-08-04T13:31:52.876Z,2.83
2022-08-04T13:34:49.606Z,2.70
2022-08-04T13:37:43.696Z,2.72
2022-08-04T13:40:32.737Z,4.18
2022-08-04T13:44:15.495Z,3.10
2022-08-04T13:46:40.510Z,2.97
2022-08-04T13:50:00.984Z,2.80
2022-08-04T13:52:48.078Z,2.80
2022-08-04T13:55:38.368Z,3.40
2022-08-04T13:58:27.608Z,3.05
2022-08-04T14:01:20.745Z,2.72
2022-08-04T14:04:28.821Z,3.00
2022-08-04T14:07:21.211Z,3.28
2022-08-04T14:10:12.679Z,2.90
2022-08-04T14:13:01.507Z,2.60
2022-08-04T14:16:02.262Z,2.85
2022-08-04T14:19:01.323Z,3.45
2022-08-04T14:21:51.174Z,3.03
2022-08-04T14:24:39.852Z,2.70
2022-08-04T14:27:30.489Z,2.92
2022-08-04T14:30:27.436Z,2.38
2022-08-04T14:33:59.690Z,2.97
2022-08-04T14:36:25.427Z,3.13
2022-08-04T14:39:15.267Z,1.98
2022-08-04T14:42:03.849Z,2.17
2022-08-04T14:44:56.114Z,2.80
2022-08-04T14:47:51.821Z,2.40
2022-08-04T14:50:42.699Z,2.90
2022-08-04T14:53:31.720Z,2.58
2022-08-04T14:56:45.063Z,2.28
2022-08-04T14:59:59.082Z,2.67
2022-08-04T15:02:49.748Z,2.90
2022-08-04T15:05:55.001Z,3.00
2022-08-04T15:08:47.511Z,2.83
2022-08-04T15:11:43.295Z,3.00
2022-08-04T15:14:37.658Z,2.95
2022-08-04T15:17:29.988Z,3.10
2022-08-04T15:20:19.679Z,2.85
2022-08-04T15:23:10.793Z,136.10
2022-08-04T15:26:04.527Z,292.40
2022-08-04T15:28:59.366Z,391.15
2022-08-04T15:32:05.966Z,224.10
2022-08-04T15:35:03.814Z,107.53
2022-08-04T15:38:01.863Z,59.20
2022-08-04T15:41:01.524Z,30.85
2022-08-04T15:44:07.987Z,15.93
2022-08-04T15:47:20.228Z,10.98
2022-08-04T15:50:10.958Z,7.22
2022-08-04T15:53:10.688Z,6.00
2022-08-04T15:56:01.601Z,5.05
2022-08-04T15:58:52.728Z,4.20
2022-08-04T16:01:43.306Z,3.47
2022-08-04T16:05:18.290Z,3.30
2022-08-04T16:08:12.936Z,3.35
2022-08-04T16:11:01.060Z,3.50
2022-08-04T16:14:09.946Z,3.13
2022-08-04T16:17:19.689Z,3.72
2022-08-04T16:20:14.604Z,3.47
2022-08-04T16:23:26.712Z,3.58
2022-08-04T16:26:46.196Z,3.30
2022-08-04T16:29:44.119Z,3.40
2022-08-04T16:32:42.382Z,3.50
2022-08-04T16:35:30.612Z,3.50
2022-08-04T16:38:19.113Z,3.38
2022-08-04T16:41:07.646Z,3.97
2022-08-04T16:44:52.333Z,3.60
2022-08-04T16:48:08.134Z,3.22
2022-08-04T16:51:04.966Z,3.38
2022-08-04T16:54:04.823Z,3.63
2022-08-04T16:56:56.252Z,3.30
2022-08-04T16:59:53.036Z,3.13
2022-08-04T17:02:42.276Z,3.25
2022-08-04T17:05:39.833Z,3.33
2022-08-04T17:08:31.700Z,3.47
2022-08-04T17:11:20.196Z,3.58
2022-08-04T17:14:09.219Z,4.30
2022-08-04T17:16:59.513Z,12.93
2022-08-04T17:19:53.777Z,10.63
2022-08-04T17:22:44.275Z,9.63
2022-08-04T17:25:52.170Z,9.30
2022-08-04T17:28:47.638Z,9.07
2022-08-04T17:31:40.707Z,6.63
2022-08-04T17:34:28.920Z,6.80
2022-08-04T17:37:38.550Z,5.10
2022-08-04T17:40:27.478Z,4.97
2022-08-04T17:44:05.193Z,5.00
2022-08-04T17:49:52.828Z,4.57
2022-08-04T17:52:45.107Z,3.95
2022-08-04T17:55:42.472Z,4.45
2022-08-04T17:58:31.491Z,3.80
2022-08-04T18:01:26.991Z,3.00
2022-08-04T18:04:34.578Z,3.67
2022-08-04T18:08:39.364Z,3.13
2022-08-04T18:10:54.717Z,3.10
2022-08-04T18:13:44.978Z,3.30
2022-08-04T18:16:44.549Z,4.05
2022-08-04T18:19:33.077Z,3.80
2022-08-04T18:22:37.061Z,3.53
2022-08-04T18:25:50.416Z,3.38
2022-08-04T18:28:36.323Z,3.47
2022-08-04T18:31:25.536Z,3.50
2022-08-04T18:34:20.444Z,3.50
2022-08-04T18:40:30.240Z,3.75
2022-08-04T18:46:34.059Z,3.10
2022-08-04T18:50:58.801Z,3.30
2022-08-04T18:52:33.468Z,3.28
2022-08-04T18:55:55.733Z,3.22
2022-08-04T18:58:30.977Z,3.42
2022-08-04T19:01:22.097Z,3.40
2022-08-04T19:04:34.249Z,3.50
2022-08-04T19:07:29.963Z,3.10
2022-08-04T19:10:23.682Z,3.42
2022-08-04T19:13:25.362Z,3.10
2022-08-04T19:16:16.719Z,3.00
2022-08-04T19:19:10.692Z,3.17
2022-08-04T19:22:02.785Z,3.05
2022-08-04T19:24:56.845Z,3.42
2022-08-04T19:27:45.494Z,3.10
2022-08-04T19:30:43.329Z,3.28
2022-08-04T19:33:58.663Z,3.15
2022-08-04T19:36:40.042Z,3.10
2022-08-04T19:39:36.071Z,3.20
2022-08-04T19:42:29.225Z,3.15
2022-08-04T19:45:17.909Z,3.40
2022-08-04T19:48:17.761Z,2.72
2022-08-04T19:51:08.126Z,2.80
2022-08-04T19:54:02.962Z,2.88
2022-08-04T19:57:00.953Z,2.97
2022-08-04T19:59:50.768Z,2.95
2022-08-04T20:02:42.991Z,2.95
2022-08-04T20:05:52.856Z,3.08
2022-08-04T20:08:48.506Z,3.08
2022-08-04T20:11:37.150Z,3.05
2022-08-04T20:14:32.854Z,3.00
2022-08-04T20:17:21.851Z,2.80
2022-08-04T20:20:29.338Z,3.15
2022-08-04T20:23:17.849Z,2.95
2022-08-04T20:26:26.397Z,2.97
2022-08-04T20:29:15.459Z,3.13
2022-08-04T20:32:26.434Z,2.97
2022-08-04T20:35:15.764Z,3.13
2022-08-04T20:38:05.748Z,2.70
2022-08-04T20:40:54.438Z,3.00
2022-08-04T20:43:43.102Z,2.60
2022-08-04T20:46:38.493Z,2.90
2022-08-04T20:49:35.017Z,2.95
2022-08-04T20:52:25.704Z,2.53
2022-08-04T20:55:15.104Z,2.50
2022-08-04T20:58:04.177Z,2.40
2022-08-04T21:00:53.284Z,2.78
2022-08-04T21:03:57.832Z,2.95
2022-08-04T21:06:50.334Z,2.95
2022-08-04T21:09:50.585Z,2.90
2022-08-04T21:12:39.297Z,2.85
2022-08-04T21:15:58.115Z,2.47
2022-08-04T21:18:36.412Z,2.72
2022-08-04T21:21:24.929Z,2.90
2022-08-04T21:24:26.556Z,3.42
2022-08-04T21:27:15.587Z,2.50
2022-08-04T21:33:12.999Z,2.60
2022-08-04T21:36:02.847Z,2.70
2022-08-04T21:38:52.554Z,2.60
2022-08-04T21:42:10.223Z,2.67
2022-08-04T21:44:51.019Z,2.70
2022-08-04T21:47:46.431Z,2.47
2022-08-04T21:50:37.904Z,2.80
2022-08-04T21:53:28.374Z,2.55
2022-08-04T21:56:17.109Z,2.60
2022-08-04T21:59:16.087Z,2.75
2022-08-04T22:02:19.356Z,2.60
2022-08-04T22:05:07.896Z,2.60
2022-08-04T22:07:57.507Z,2.72
2022-08-04T22:10:46.937Z,2.50
2022-08-04T22:13:52.570Z,2.65
2022-08-04T22:16:49.805Z,2.58
2022-08-04T22:19:50.272Z,2.50
2022-08-04T22:22:45.072Z,2.50
2022-08-04T22:25:39.594Z,2.65
2022-08-04T22:28:33.511Z,2.50
2022-08-04T22:31:26.102Z,2.35
2022-08-04T22:34:39.447Z,2.38
2022-08-04T22:37:36.103Z,2.40
2022-08-04T22:40:33.422Z,2.33
2022-08-04T22:43:33.775Z,2.45
2022-08-04T22:46:25.313Z,2.65
2022-08-04T22:49:14.145Z,2.55
2022-08-04T22:52:10.472Z,2.50
2022-08-04T22:55:06.304Z,2.50
2022-08-04T22:58:04.848Z,2.40
2022-08-04T23:00:58.032Z,2.33
2022-08-04T23:03:50.963Z,2.40
2022-08-04T23:06:44.713Z,2.20
2022-08-04T23:09:50.121Z,2.70
2022-08-04T23:12:39.725Z,2.28
2022-08-04T23:15:33.742Z,2.60
2022-08-04T23:18:22.574Z,2.63
2022-08-04T23:21:12.145Z,2.38
2022-08-04T23:24:02.757Z,2.30
2022-08-04T23:26:52.656Z,2.40
2022-08-04T23:29:52.733Z,2.28
2022-08-04T23:32:42.566Z,2.38
2022-08-04T23:35:34.567Z,2.50
2022-08-04T23:38:31.112Z,2.40
2022-08-04T23:41:20.916Z,2.65
2022-08-04T23:44:10.446Z,2.70
2022-08-04T23:47:01.210Z,2.63
2022-08-04T23:49:49.737Z,2.57
2022-08-04T23:52:38.461Z,2.63
2022-08-04T23:55:32.022Z,2.70
2022-08-04T23:58:28.346Z,2.13
